Time;durP1;ratioP1;P1;durP2;ratioP2;P2;SDS_P1;SDS_P2;PMS_P1;PMS_P2;Temp;Humidity;BMP_temperature;BMP_pressure;BME280_temperature;BME280_humidity;BME280_pressure;Samples;Min_cycle;Max_cycle;Signal;HPM_P1;HPM_P2
2022/06/14 00:03:15;;;;;;;;;;;21.80;50.20;;;;;;4985260;28;20574;-70
2022/06/14 00:05:40;;;;;;;;;;;21.80;50.10;;;;;;4985145;28;19914;-70
2022/06/14 00:08:06;;;;;;;;;;;21.80;50.50;;;;;;4984425;28;20336;-69
2022/06/14 00:10:31;;;;;;;;;;;21.80;50.30;;;;;;4984441;28;20896;-71
2022/06/14 00:12:57;;;;;;;;;;;21.80;50.50;;;;;;4984669;28;19939;-70
2022/06/14 00:15:22;;;;;;;;;;;21.70;50.20;;;;;;4985216;28;20381;-68
2022/06/14 00:17:47;;;;;;;;;;;21.80;50.50;;;;;;4985498;28;19952;-68
2022/06/14 00:20:13;;;;;;;;;;;21.80;50.50;;;;;;4985327;28;20010;-69
2022/06/14 00:22:38;;;;;;;;;;;21.70;50.40;;;;;;4985101;28;19921;-69
2022/06/14 00:25:04;;;;;;;;;;;21.70;50.60;;;;;;4985423;28;20339;-70
2022/06/14 00:27:30;;;;;;;;;;;21.70;50.30;;;;;;4983602;28;19913;-71
2022/06/14 00:29:55;;;;;;;;;;;21.70;50.40;;;;;;4984739;28;19921;-69
2022/06/14 00:32:20;;;;;;;;;;;21.70;50.60;;;;;;4984322;28;19965;-69
2022/06/14 00:34:46;;;;;;;;;;;21.70;50.50;;;;;;4984407;28;20288;-70
2022/06/14 00:37:16;;;;;;;;;;;21.80;50.50;;;;;;4984677;28;19926;-69
2022/06/14 00:39:41;;;;;;;;;;;21.70;50.30;;;;;;4984374;28;19937;-70
2022/06/14 00:42:09;;;;;;;;;;;21.70;50.60;;;;;;4984427;28;20366;-70
2022/06/14 00:44:35;;;;;;;;;;;21.70;50.80;;;;;;4983338;28;19914;-70
2022/06/14 00:47:06;;;;;;;;;;;21.70;50.30;;;;;;4984642;28;20185;-70
2022/06/14 00:49:39;;;;;;;;;;;21.70;50.20;;;;;;4982577;28;21756;-70
2022/06/14 00:52:10;;;;;;;;;;;21.70;50.20;;;;;;4982358;28;20308;-70
2022/06/14 00:54:36;;;;;;;;;;;21.70;50.60;;;;;;4983955;28;20514;-69
2022/06/14 00:57:05;;;;;;;;;;;21.60;50.30;;;;;;4964880;28;20629;-70
2022/06/14 00:59:36;;;;;;;;;;;21.70;50.20;;;;;;4963723;28;20040;-70
2022/06/14 01:02:19;;;;;;;;;;;21.60;50.40;;;;;;4983078;28;20636;-69
2022/06/14 01:04:44;;;;;;;;;;;21.70;50.20;;;;;;4983972;28;20534;-69
2022/06/14 01:07:11;;;;;;;;;;;21.60;50.00;;;;;;4984568;28;20320;-71
2022/06/14 01:09:38;;;;;;;;;;;21.60;50.00;;;;;;4983190;28;19953;-70
2022/06/14 01:12:05;;;;;;;;;;;21.60;50.50;;;;;;4984382;28;19918;-71
2022/06/14 01:14:49;;;;;;;;;;;21.60;50.10;;;;;;4982884;28;19914;-69
2022/06/14 01:17:15;;;;;;;;;;;21.60;50.10;;;;;;4984065;28;19918;-71
2022/06/14 01:19:42;;;;;;;;;;;21.60;50.50;;;;;;4982857;28;22489;-71
2022/06/14 01:22:07;;;;;;;;;;;21.60;50.00;;;;;;4982795;28;19921;-68
2022/06/14 01:24:33;;;;;;;;;;;21.60;50.10;;;;;;4987657;28;20418;-69
2022/06/14 01:26:59;;;;;;;;;;;21.60;50.40;;;;;;4987394;28;19917;-71
2022/06/14 01:29:24;;;;;;;;;;;21.60;50.10;;;;;;4986753;28;20017;-69
2022/06/14 01:31:49;;;;;;;;;;;21.60;50.00;;;;;;4988126;28;19952;-71
2022/06/14 01:34:15;;;;;;;;;;;21.60;50.50;;;;;;4988232;28;19993;-71
2022/06/14 01:36:40;;;;;;;;;;;21.50;50.00;;;;;;4986615;28;19922;-69
2022/06/14 01:39:09;;;;;;;;;;;21.60;50.80;;;;;;4988548;28;20372;-69
2022/06/14 01:41:41;;;;;;;;;;;21.60;50.30;;;;;;4988261;28;19921;-70
2022/06/14 01:44:13;;;;;;;;;;;21.50;50.50;;;;;;4988040;28;19921;-69
2022/06/14 01:46:48;;;;;;;;;;;21.50;50.20;;;;;;4988116;28;19944;-70
2022/06/14 01:52:06;;;;;;;;;;;21.50;50.40;;;;;;4987198;28;19948;-69
2022/06/14 01:54:33;;;;;;;;;;;21.50;50.20;;;;;;4986137;28;19925;-69
2022/06/14 01:57:03;;;;;;;;;;;21.50;50.40;;;;;;4986936;28;19921;-69
2022/06/14 01:59:36;;;;;;;;;;;21.50;50.30;;;;;;4987296;28;19922;-69
2022/06/14 02:02:07;;;;;;;;;;;21.50;50.40;;;;;;4987393;28;19914;-69
2022/06/14 02:04:43;;;;;;;;;;;21.50;50.40;;;;;;4988539;28;19945;-70
2022/06/14 02:07:27;;;;;;;;;;;21.50;50.40;;;;;;4987377;28;21822;-72
2022/06/14 02:09:55;;;;;;;;;;;21.50;50.20;;;;;;4990006;28;19914;-69
2022/06/14 02:12:23;;;;;;;;;;;21.50;50.20;;;;;;4990643;28;20051;-70
2022/06/14 02:14:58;;;;;;;;;;;21.50;50.10;;;;;;4988180;28;19921;-69
2022/06/14 02:17:35;;;;;;;;;;;21.50;50.30;;;;;;4987280;28;19921;-70
2022/06/14 02:20:02;;;;;;;;;;;21.40;50.50;;;;;;4990641;28;20004;-71
2022/06/14 02:22:30;;;;;;;;;;;21.50;50.50;;;;;;4987032;28;20408;-71
2022/06/14 02:24:57;;;;;;;;;;;21.40;50.20;;;;;;4988654;28;20377;-71
2022/06/14 02:27:24;;;;;;;;;;;21.40;50.20;;;;;;4986660;28;19918;-69
2022/06/14 02:29:56;;;;;;;;;;;21.40;50.40;;;;;;4988064;28;19918;-70
2022/06/14 02:32:48;;;;;;;;;;;21.40;50.10;;;;;;4987942;28;20032;-71
2022/06/14 02:35:21;;;;;;;;;;;21.40;50.20;;;;;;4950800;28;19957;-70
2022/06/14 02:37:49;;;;;;;;;;;21.40;50.20;;;;;;4986850;28;19922;-70
2022/06/14 02:40:17;;;;;;;;;;;21.40;50.30;;;;;;4990377;28;19921;-69
2022/06/14 02:42:44;;;;;;;;;;;21.40;50.20;;;;;;4989440;28;19921;-69
2022/06/14 02:45:33;;;;;;;;;;;21.40;50.30;;;;;;4986782;28;19918;-70
2022/06/14 02:48:10;;;;;;;;;;;21.30;50.10;;;;;;4978352;28;20223;-69
2022/06/14 02:50:41;;;;;;;;;;;21.30;50.20;;;;;;4984537;28;20350;-69
2022/06/14 02:53:14;;;;;;;;;;;21.30;50.20;;;;;;4984344;28;19949;-69
2022/06/14 02:55:43;;;;;;;;;;;21.30;50.50;;;;;;4984791;28;19924;-67
2022/06/14 02:58:11;;;;;;;;;;;21.30;50.60;;;;;;4984973;28;19968;-66
2022/06/14 03:00:39;;;;;;;;;;;21.30;50.40;;;;;;4982420;28;19917;-67
2022/06/14 03:03:06;;;;;;;;;;;21.30;50.60;;;;;;4984873;28;19913;-67
2022/06/14 03:05:40;;;;;;;;;;;21.30;50.40;;;;;;4986471;28;19917;-71
2022/06/14 03:08:09;;;;;;;;;;;21.30;50.30;;;;;;4986135;28;19921;-67
2022/06/14 03:10:37;;;;;;;;;;;21.30;50.40;;;;;;4984482;28;19999;-70
2022/06/14 03:13:04;;;;;;;;;;;21.30;50.10;;;;;;4985891;28;20347;-69
2022/06/14 03:15:56;;;;;;;;;;;21.30;50.30;;;;;;4984863;28;20376;-70
2022/06/14 03:18:36;;;;;;;;;;;21.30;50.20;;;;;;4948326;28;19921;-71
2022/06/14 03:21:13;;;;;;;;;;;21.30;50.20;;;;;;4986135;28;20148;-69
2022/06/14 03:23:44;;;;;;;;;;;21.30;50.40;;;;;;4984192;28;19914;-68
2022/06/14 03:26:28;;;;;;;;;;;21.30;50.60;;;;;;4985835;28;20536;-69
2022/06/14 03:28:55;;;;;;;;;;;21.20;50.10;;;;;;4985962;28;20307;-70
2022/06/14 03:31:23;;;;;;;;;;;21.20;50.30;;;;;;4983587;28;19925;-68
2022/06/14 03:33:48;;;;;;;;;;;21.20;50.60;;;;;;4998666;28;20288;-68
2022/06/14 03:36:14;;;;;;;;;;;21.20;50.20;;;;;;4984491;28;20017;-70
2022/06/14 03:38:40;;;;;;;;;;;21.20;50.10;;;;;;4965490;28;19971;-70
2022/06/14 03:41:06;;;;;;;;;;;21.20;50.10;;;;;;4966886;28;19925;-69
2022/06/14 03:43:32;;;;;;;;;;;21.20;50.20;;;;;;4975449;28;20425;-70
2022/06/14 03:45:59;;;;;;;;;;;21.20;50.30;;;;;;4985214;28;19926;-70
2022/06/14 03:48:24;;;;;;;;;;;21.20;50.30;;;;;;4984676;28;19964;-70
2022/06/14 03:50:53;;;;;;;;;;;21.20;50.20;;;;;;4984597;28;19921;-70
2022/06/14 03:53:25;;;;;;;;;;;21.20;50.50;;;;;;4984675;28;19922;-70
2022/06/14 03:55:57;;;;;;;;;;;21.20;50.30;;;;;;4984217;28;19922;-71
2022/06/14 03:58:41;;;;;;;;;;;21.20;50.10;;;;;;4985301;28;19921;-70
2022/06/14 04:01:12;;;;;;;;;;;21.20;50.20;;;;;;4984768;28;19917;-68
2022/06/14 04:03:43;;;;;;;;;;;21.20;50.30;;;;;;4984208;28;20420;-69
2022/06/14 04:06:21;;;;;;;;;;;21.20;50.30;;;;;;4991828;28;21746;-71
2022/06/14 04:09:12;;;;;;;;;;;21.20;50.30;;;;;;4996041;28;20013;-71
2022/06/14 04:11:59;;;;;;;;;;;21.20;50.60;;;;;;4958537;28;20601;-69
2022/06/14 04:14:24;;;;;;;;;;;21.20;50.70;;;;;;4983003;28;20004;-70
2022/06/14 04:16:56;;;;;;;;;;;21.20;50.70;;;;;;4984932;28;20483;-70
2022/06/14 04:19:24;;;;;;;;;;;21.20;50.60;;;;;;4983755;28;19965;-70
2022/06/14 04:21:55;;;;;;;;;;;21.20;51.00;;;;;;4984506;28;19917;-70
2022/06/14 04:24:31;;;;;;;;;;;21.20;51.00;;;;;;4983656;28;19918;-66
2022/06/14 04:27:02;;;;;;;;;;;21.20;51.00;;;;;;4983850;28;20177;-70
2022/06/14 04:29:38;;;;;;;;;;;21.20;51.30;;;;;;4984798;28;20265;-70
2022/06/14 04:32:07;;;;;;;;;;;21.20;51.30;;;;;;4983481;28;19989;-71
2022/06/14 04:34:39;;;;;;;;;;;21.20;51.40;;;;;;4983247;28;19922;-68
2022/06/14 04:37:05;;;;;;;;;;;21.20;51.40;;;;;;4982849;28;19922;-67
2022/06/14 04:39:44;;;;;;;;;;;21.20;51.40;;;;;;4984361;28;19925;-69
2022/06/14 04:42:17;;;;;;;;;;;21.20;51.40;;;;;;4983133;28;20292;-65
2022/06/14 04:44:50;;;;;;;;;;;21.20;51.50;;;;;;4983095;28;20463;-69
2022/06/14 04:47:24;;;;;;;;;;;21.30;51.50;;;;;;4983101;28;20388;-68
2022/06/14 04:49:50;;;;;;;;;;;21.30;51.40;;;;;;4985631;28;19914;-68
2022/06/14 04:52:20;;;;;;;;;;;21.30;51.40;;;;;;4984326;28;19918;-70
2022/06/14 04:54:48;;;;;;;;;;;21.30;51.50;;;;;;4987594;28;19949;-69
2022/06/14 04:57:25;;;;;;;;;;;21.30;51.30;;;;;;4984071;28;19941;-68
2022/06/14 04:59:52;;;;;;;;;;;21.30;51.30;;;;;;4984517;28;19918;-69
2022/06/14 05:02:31;;;;;;;;;;;21.30;51.50;;;;;;4982674;28;19920;-68
2022/06/14 05:04:58;;;;;;;;;;;21.30;51.50;;;;;;4984330;28;20407;-69
2022/06/14 05:07:26;;;;;;;;;;;21.30;51.60;;;;;;4982974;28;19920;-67
2022/06/14 05:09:54;;;;;;;;;;;21.30;51.60;;;;;;4984453;28;19920;-73
2022/06/14 05:12:32;;;;;;;;;;;21.30;51.50;;;;;;4984286;28;20042;-70
2022/06/14 05:14:59;;;;;;;;;;;21.30;51.60;;;;;;4984487;28;19914;-72
2022/06/14 05:17:27;;;;;;;;;;;21.30;51.80;;;;;;4982768;28;19928;-71
2022/06/14 05:19:55;;;;;;;;;;;21.30;51.80;;;;;;4984194;28;20012;-71
2022/06/14 05:22:30;;;;;;;;;;;21.30;51.60;;;;;;4983716;28;19918;-71
2022/06/14 05:24:56;;;;;;;;;;;21.30;51.80;;;;;;4982967;28;20671;-70
2022/06/14 05:27:40;;;;;;;;;;;21.30;51.70;;;;;;4984419;28;19996;-71
2022/06/14 05:30:22;;;;;;;;;;;21.30;51.80;;;;;;4981814;28;20163;-68
2022/06/14 05:33:11;;;;;;;;;;;21.30;51.70;;;;;;4984710;28;19918;-70
2022/06/14 05:35:48;;;;;;;;;;;21.30;51.80;;;;;;4972370;28;19967;-71
2022/06/14 05:38:32;;;;;;;;;;;21.30;51.70;;;;;;4984275;28;20205;-71
2022/06/14 05:41:02;;;;;;;;;;;21.30;52.00;;;;;;4988353;28;19949;-68
2022/06/14 05:43:32;;;;;;;;;;;21.30;51.60;;;;;;4983638;28;19949;-68
2022/06/14 05:46:07;;;;;;;;;;;21.30;51.80;;;;;;4963767;28;19948;-67
2022/06/14 05:48:37;;;;;;;;;;;21.30;51.60;;;;;;4978990;28;20348;-69
2022/06/14 05:51:04;;;;;;;;;;;21.20;51.80;;;;;;4991973;28;20372;-69
2022/06/14 05:53:32;;;;;;;;;;;21.20;51.80;;;;;;4982858;28;19929;-70
2022/06/14 05:56:01;;;;;;;;;;;21.20;51.90;;;;;;4982814;28;20009;-70
2022/06/14 05:58:31;;;;;;;;;;;21.20;51.90;;;;;;4983116;28;20089;-69
2022/06/14 06:01:08;;;;;;;;;;;21.20;52.00;;;;;;4982619;28;20004;-69
2022/06/14 06:03:48;;;;;;;;;;;21.20;51.90;;;;;;4982829;28;19913;-70
2022/06/14 06:06:25;;;;;;;;;;;21.30;52.00;;;;;;4982797;28;19918;-68
2022/06/14 06:08:55;;;;;;;;;;;21.20;51.80;;;;;;4982883;28;19917;-70
2022/06/14 06:11:21;;;;;;;;;;;21.20;51.60;;;;;;4985409;28;20021;-70
2022/06/14 06:13:48;;;;;;;;;;;21.20;52.10;;;;;;4986251;28;20004;-69
2022/06/14 06:16:18;;;;;;;;;;;21.30;51.80;;;;;;4986328;28;19918;-69
2022/06/14 06:18:45;;;;;;;;;;;21.30;51.90;;;;;;4986230;28;19914;-70
2022/06/14 06:21:25;;;;;;;;;;;21.30;52.00;;;;;;4985881;28;19914;-69
2022/06/14 06:24:02;;;;;;;;;;;21.30;51.80;;;;;;4986017;28;19918;-70
2022/06/14 06:26:29;;;;;;;;;;;21.30;51.90;;;;;;4986639;28;20377;-66
2022/06/14 06:28:57;;;;;;;;;;;21.20;51.80;;;;;;4986614;28;20557;-67
2022/06/14 06:31:29;;;;;;;;;;;21.20;51.70;;;;;;4986650;28;20400;-68
2022/06/14 06:33:55;;;;;;;;;;;21.20;51.70;;;;;;4986059;28;19914;-66
2022/06/14 06:36:35;;;;;;;;;;;21.30;51.60;;;;;;4986336;28;19929;-65
2022/06/14 06:39:11;;;;;;;;;;;21.20;51.50;;;;;;4987505;28;19991;-69
2022/06/14 06:41:50;;;;;;;;;;;21.30;51.70;;;;;;4983258;28;20375;-67
2022/06/14 06:44:21;;;;;;;;;;;21.30;51.70;;;;;;4987284;28;19921;-68
2022/06/14 06:46:48;;;;;;;;;;;21.20;51.60;;;;;;4987373;28;20320;-67
2022/06/14 06:49:14;;;;;;;;;;;21.30;51.50;;;;;;4987274;28;19914;-67
2022/06/14 06:51:40;;;;;;;;;;;21.30;51.40;;;;;;4985719;28;20009;-67
2022/06/14 06:54:08;;;;;;;;;;;21.20;51.50;;;;;;4986938;28;19968;-68
2022/06/14 06:56:35;;;;;;;;;;;21.20;51.60;;;;;;4985154;28;19918;-68
2022/06/14 06:59:09;;;;;;;;;;;21.20;51.70;;;;;;4985914;28;19945;-68
2022/06/14 07:01:36;;;;;;;;;;;21.20;51.50;;;;;;4987440;28;19918;-67
2022/06/14 07:05:02;;;;;;;;;;;21.30;51.50;;;;;;4986631;28;19914;-67
2022/06/14 07:07:08;;;;;;;;;;;21.20;51.60;;;;;;4987039;28;19921;-70
2022/06/14 07:09:41;;;;;;;;;;;21.30;51.60;;;;;;4985661;28;19920;-67
2022/06/14 07:12:09;;;;;;;;;;;21.20;52.30;;;;;;4984703;28;19921;-69
2022/06/14 07:14:43;;;;;;;;;;;21.20;51.50;;;;;;4984751;28;19914;-68
2022/06/14 07:17:13;;;;;;;;;;;21.20;51.60;;;;;;4955991;28;20471;-69
2022/06/14 07:19:42;;;;;;;;;;;21.20;51.50;;;;;;4965808;28;19921;-68
2022/06/14 07:22:13;;;;;;;;;;;21.20;51.50;;;;;;4953941;28;19914;-67
2022/06/14 07:24:47;;;;;;;;;;;21.20;51.60;;;;;;4981196;28;19982;-69
2022/06/14 07:27:13;;;;;;;;;;;21.10;51.60;;;;;;4983487;28;21896;-66
2022/06/14 07:29:43;;;;;;;;;;;21.00;51.60;;;;;;4985254;28;19943;-69
2022/06/14 07:32:14;;;;;;;;;;;21.00;51.70;;;;;;4983894;28;20724;-69
2022/06/14 07:34:39;;;;;;;;;;;21.10;51.60;;;;;;4983641;28;20399;-68
2022/06/14 07:37:11;;;;;;;;;;;21.10;51.80;;;;;;4983475;28;19922;-68
2022/06/14 07:39:38;;;;;;;;;;;21.10;51.60;;;;;;4986165;28;20090;-68
2022/06/14 07:42:04;;;;;;;;;;;21.10;51.70;;;;;;4983737;28;19914;-69
2022/06/14 07:44:35;;;;;;;;;;;21.10;51.60;;;;;;4985278;28;20005;-68
2022/06/14 07:47:05;;;;;;;;;;;21.10;51.50;;;;;;4984595;28;20292;-69
2022/06/14 07:49:43;;;;;;;;;;;21.10;51.60;;;;;;4984291;28;22973;-67
2022/06/14 07:52:22;;;;;;;;;;;21.10;51.50;;;;;;4983595;28;20473;-67
2022/06/14 07:54:48;;;;;;;;;;;21.10;51.40;;;;;;4985592;28;19918;-69
2022/06/14 07:57:40;;;;;;;;;;;21.10;51.50;;;;;;4984310;28;19925;-69
2022/06/14 08:02:50;;;;;;;;;;;21.20;51.50;;;;;;4985437;28;20009;-66
2022/06/14 08:05:17;;;;;;;;;;;21.20;51.70;;;;;;4984112;28;19913;-69
2022/06/14 08:07:42;;;;;;;;;;;21.10;51.50;;;;;;4984072;28;19996;-69
2022/06/14 08:10:13;;;;;;;;;;;21.10;51.10;;;;;;4983879;28;20026;-69
2022/06/14 08:12:52;;;;;;;;;;;21.10;51.60;;;;;;4982988;28;20364;-67
2022/06/14 08:15:21;;;;;;;;;;;21.10;51.50;;;;;;4985273;28;19921;-68
2022/06/14 08:17:47;;;;;;;;;;;21.10;51.30;;;;;;4984052;28;19918;-68
2022/06/14 08:20:16;;;;;;;;;;;21.10;51.50;;;;;;4985272;28;20032;-69
2022/06/14 08:22:46;;;;;;;;;;;21.10;51.70;;;;;;4982991;28;20235;-69
2022/06/14 08:25:16;;;;;;;;;;;21.10;51.60;;;;;;4984131;28;19925;-69
2022/06/14 08:27:45;;;;;;;;;;;21.00;51.20;;;;;;4984269;28;20390;-69
2022/06/14 08:30:13;;;;;;;;;;;21.10;51.90;;;;;;4958822;28;19937;-69
2022/06/14 08:32:39;;;;;;;;;;;21.10;51.70;;;;;;4983444;28;20347;-69
2022/06/14 08:35:24;;;;;;;;;;;21.10;49.90;;;;;;4983430;28;19914;-69
2022/06/14 08:37:53;;;;;;;;;;;21.00;51.50;;;;;;4975065;28;20391;-66
2022/06/14 08:40:37;;;;;;;;;;;21.00;51.70;;;;;;4983326;28;19914;-68
2022/06/14 08:43:08;;;;;;;;;;;21.00;51.50;;;;;;4982969;28;19922;-69
2022/06/14 08:45:35;;;;;;;;;;;21.10;51.70;;;;;;4984814;28;19949;-68
2022/06/14 08:48:26;;;;;;;;;;;21.00;51.30;;;;;;4983639;28;19941;-69
2022/06/14 08:51:11;;;;;;;;;;;21.10;52.30;;;;;;4983789;28;20292;-69
2022/06/14 08:53:45;;;;;;;;;;;21.00;52.10;;;;;;4983059;28;19918;-67
2022/06/14 08:56:32;;;;;;;;;;;21.10;51.90;;;;;;4983629;28;20436;-69
2022/06/14 08:58:57;;;;;;;;;;;21.20;51.50;;;;;;4984299;28;21672;-68
2022/06/14 09:01:27;;;;;;;;;;;20.70;51.40;;;;;;4984694;28;19964;-69
2022/06/14 09:03:53;;;;;;;;;;;20.80;51.00;;;;;;4983365;28;20008;-71
2022/06/14 09:06:33;;;;;;;;;;;20.90;50.30;;;;;;4984585;28;20009;-74
2022/06/14 09:09:17;;;;;;;;;;;20.90;50.80;;;;;;4984137;28;20395;-73
2022/06/14 09:11:53;;;;;;;;;;;20.80;50.30;;;;;;4984007;28;20206;-72
2022/06/14 09:14:34;;;;;;;;;;;20.90;50.40;;;;;;4983009;28;20296;-71
2022/06/14 09:17:02;;;;;;;;;;;20.90;50.60;;;;;;4984268;28;19941;-72
2022/06/14 09:19:36;;;;;;;;;;;20.70;50.30;;;;;;4984326;28;19914;-76
2022/06/14 09:22:20;;;;;;;;;;;20.60;50.00;;;;;;4983006;28;20005;-74
2022/06/14 09:25:11;;;;;;;;;;;20.70;49.20;;;;;;4984475;28;20345;-75
2022/06/14 09:27:43;;;;;;;;;;;20.70;49.70;;;;;;4969185;28;19921;-74
2022/06/14 09:30:30;;;;;;;;;;;20.60;49.30;;;;;;4983102;28;19914;-73
2022/06/14 09:33:11;;;;;;;;;;;20.70;49.60;;;;;;4981952;28;20526;-76
2022/06/14 09:35:45;;;;;;;;;;;20.80;49.60;;;;;;4983912;28;19917;-74
2022/06/14 09:38:30;;;;;;;;;;;20.90;49.50;;;;;;4982602;28;22468;-73
2022/06/14 09:40:57;;;;;;;;;;;20.90;49.50;;;;;;4965256;28;19957;-73
2022/06/14 09:43:39;;;;;;;;;;;20.90;49.40;;;;;;4964785;28;20239;-75
2022/06/14 09:46:07;;;;;;;;;;;20.90;49.30;;;;;;4986867;28;20001;-73
2022/06/14 09:48:51;;;;;;;;;;;20.90;49.30;;;;;;4988888;28;19926;-75
2022/06/14 09:51:32;;;;;;;;;;;20.90;49.20;;;;;;4987757;28;20218;-74
2022/06/14 09:54:06;;;;;;;;;;;20.80;49.20;;;;;;4971231;28;19914;-75
2022/06/14 09:56:37;;;;;;;;;;;20.80;49.20;;;;;;4987169;28;19921;-72
2022/06/14 09:59:07;;;;;;;;;;;20.90;49.10;;;;;;4988234;28;19928;-73
2022/06/14 10:01:38;;;;;;;;;;;20.80;49.20;;;;;;4986559;28;19929;-71
2022/06/14 10:04:19;;;;;;;;;;;20.70;49.10;;;;;;4988288;28;19961;-72
2022/06/14 10:06:48;;;;;;;;;;;20.80;49.20;;;;;;4987404;28;19988;-73
2022/06/14 10:09:32;;;;;;;;;;;20.80;49.60;;;;;;4987859;28;19921;-73
2022/06/14 10:12:03;;;;;;;;;;;20.90;49.60;;;;;;4986746;28;19961;-75
2022/06/14 10:14:38;;;;;;;;;;;20.90;49.30;;;;;;4986601;28;19961;-72
2022/06/14 10:17:14;;;;;;;;;;;20.90;49.50;;;;;;4987939;28;19961;-73
2022/06/14 10:19:42;;;;;;;;;;;20.90;49.60;;;;;;4986227;28;21350;-73
2022/06/14 10:22:20;;;;;;;;;;;20.90;49.50;;;;;;4987820;28;19941;-73
2022/06/14 10:25:10;;;;;;;;;;;20.90;49.20;;;;;;4985701;28;19918;-71
2022/06/14 10:30:31;;;;;;;;;;;21.00;49.40;;;;;;4987397;28;20010;-74
2022/06/14 10:33:00;;;;;;;;;;;20.90;48.90;;;;;;4985360;28;20416;-75
2022/06/14 10:35:25;;;;;;;;;;;20.80;48.90;;;;;;4987446;28;19914;-74
2022/06/14 10:37:59;;;;;;;;;;;20.80;49.20;;;;;;4986140;28;19984;-68
2022/06/14 10:40:38;;;;;;;;;;;20.90;48.30;;;;;;4985966;28;19925;-74
2022/06/14 10:43:07;;;;;;;;;;;20.90;49.60;;;;;;4986340;28;19913;-71
2022/06/14 10:45:49;;;;;;;;;;;20.90;49.70;;;;;;4986606;28;19941;-72
2022/06/14 10:48:25;;;;;;;;;;;21.00;49.50;;;;;;4987052;28;19914;-73
2022/06/14 10:50:57;;;;;;;;;;;21.00;48.90;;;;;;4986667;28;20440;-75
2022/06/14 10:53:22;;;;;;;;;;;21.00;49.40;;;;;;4986413;28;19921;-74
2022/06/14 10:55:50;;;;;;;;;;;21.00;49.40;;;;;;4987738;28;19913;-74
2022/06/14 10:58:19;;;;;;;;;;;21.00;49.10;;;;;;4987867;28;20009;-74
2022/06/14 11:01:03;;;;;;;;;;;21.00;49.10;;;;;;4987488;28;20021;-74
2022/06/14 11:03:32;;;;;;;;;;;21.00;49.20;;;;;;4987137;28;19913;-75
2022/06/14 11:06:24;;;;;;;;;;;21.00;49.10;;;;;;4969307;28;19914;-73
2022/06/14 11:08:53;;;;;;;;;;;20.90;48.80;;;;;;4986634;28;20644;-72
2022/06/14 11:11:24;;;;;;;;;;;20.80;48.20;;;;;;4984919;28;19920;-74
2022/06/14 11:14:13;;;;;;;;;;;20.80;48.50;;;;;;4986595;28;19937;-73
2022/06/14 11:17:10;;;;;;;;;;;20.90;48.50;;;;;;4964015;28;19961;-69
2022/06/14 11:19:39;;;;;;;;;;;20.90;48.50;;;;;;4943148;28;20288;-72
2022/06/14 11:22:04;;;;;;;;;;;20.90;48.40;;;;;;4986712;28;19913;-72
2022/06/14 11:24:48;;;;;;;;;;;20.90;48.90;;;;;;4986803;28;19964;-75
2022/06/14 11:27:20;;;;;;;;;;;20.90;49.30;;;;;;4986617;28;19971;-73
2022/06/14 11:30:01;;;;;;;;;;;20.80;46.30;;;;;;4986660;28;20343;-73
2022/06/14 11:32:31;;;;;;;;;;;20.70;49.60;;;;;;4986233;28;19921;-74
2022/06/14 11:35:01;;;;;;;;;;;20.80;46.90;;;;;;4985529;28;20004;-74
2022/06/14 11:37:31;;;;;;;;;;;20.90;49.10;;;;;;4986788;28;20033;-74
2022/06/14 11:40:04;;;;;;;;;;;20.90;48.80;;;;;;4987576;28;19914;-72
2022/06/14 11:42:32;;;;;;;;;;;20.90;48.70;;;;;;4985332;28;19961;-75
2022/06/14 11:45:19;;;;;;;;;;;21.00;48.80;;;;;;4985341;28;19920;-76
2022/06/14 11:47:44;;;;;;;;;;;21.00;48.40;;;;;;4986289;28;20578;-74
2022/06/14 11:50:29;;;;;;;;;;;21.00;48.30;;;;;;4988922;28;19914;-74
2022/06/14 11:52:59;;;;;;;;;;;21.00;48.30;;;;;;4988582;28;19918;-75
2022/06/14 11:55:30;;;;;;;;;;;21.00;48.40;;;;;;4987695;28;19944;-72
2022/06/14 11:58:06;;;;;;;;;;;21.00;48.30;;;;;;4988500;28;19968;-72
2022/06/14 12:00:37;;;;;;;;;;;20.90;48.00;;;;;;4987579;28;19937;-72
2022/06/14 12:03:37;;;;;;;;;;;20.90;48.10;;;;;;4985326;28;20288;-74
2022/06/14 12:06:08;;;;;;;;;;;21.00;48.30;;;;;;4946160;28;19972;-72
2022/06/14 12:08:53;;;;;;;;;;;21.00;48.40;;;;;;4957824;28;19926;-71
2022/06/14 12:11:32;;;;;;;;;;;21.00;48.30;;;;;;4984661;28;20021;-73
2022/06/14 12:14:06;;;;;;;;;;;21.00;48.60;;;;;;4984525;28;20432;-75
2022/06/14 12:16:35;;;;;;;;;;;21.00;48.80;;;;;;4984038;28;19922;-75
2022/06/14 12:19:05;;;;;;;;;;;21.10;48.90;;;;;;4984938;28;19918;-73
2022/06/14 12:21:43;;;;;;;;;;;21.10;48.70;;;;;;4984203;28;19961;-74
2022/06/14 12:24:10;;;;;;;;;;;21.10;48.60;;;;;;4985379;28;20396;-74
2022/06/14 12:26:51;;;;;;;;;;;21.00;47.60;;;;;;4984171;28;19914;-72
2022/06/14 12:29:18;;;;;;;;;;;21.00;48.70;;;;;;4984072;28;19914;-73
2022/06/14 12:31:49;;;;;;;;;;;21.00;46.80;;;;;;4983857;28;19920;-73
2022/06/14 12:34:18;;;;;;;;;;;20.90;48.50;;;;;;4985868;28;20308;-75
2022/06/14 12:36:49;;;;;;;;;;;21.00;48.10;;;;;;4985955;28;20478;-73
2022/06/14 12:39:16;;;;;;;;;;;21.00;48.80;;;;;;4985118;28;19914;-75
2022/06/14 12:41:45;;;;;;;;;;;21.00;48.30;;;;;;4985212;28;19914;-74
2022/06/14 12:44:11;;;;;;;;;;;21.10;48.50;;;;;;4984699;28;19994;-74
2022/06/14 12:46:38;;;;;;;;;;;21.00;47.60;;;;;;4985261;28;19925;-75
2022/06/14 12:49:09;;;;;;;;;;;21.00;47.70;;;;;;4983806;28;20288;-75
2022/06/14 12:51:34;;;;;;;;;;;21.00;47.30;;;;;;4967221;28;19922;-75
2022/06/14 12:54:06;;;;;;;;;;;21.00;48.40;;;;;;4985252;28;19914;-74
2022/06/14 12:56:51;;;;;;;;;;;21.00;48.60;;;;;;4985322;28;20016;-74
2022/06/14 12:59:23;;;;;;;;;;;21.00;47.90;;;;;;4965643;28;19921;-73
2022/06/14 13:01:51;;;;;;;;;;;21.00;47.90;;;;;;4964491;28;19915;-74
2022/06/14 13:04:25;;;;;;;;;;;21.00;48.10;;;;;;4984563;28;19914;-74
2022/06/14 13:06:59;;;;;;;;;;;21.00;48.20;;;;;;4983527;28;19996;-74
2022/06/14 13:09:43;;;;;;;;;;;21.10;49.10;;;;;;4984260;28;20428;-75
2022/06/14 13:12:27;;;;;;;;;;;21.10;48.60;;;;;;4999664;28;19914;-74
2022/06/14 13:15:04;;;;;;;;;;;21.00;48.20;;;;;;4985156;28;19914;-74
2022/06/14 13:17:38;;;;;;;;;;;21.10;48.70;;;;;;4985205;28;20001;-73
2022/06/14 13:20:07;;;;;;;;;;;21.10;48.70;;;;;;4987116;28;19926;-73
2022/06/14 13:23:02;;;;;;;;;;;21.00;46.50;;;;;;4987221;28;19914;-73
2022/06/14 13:25:40;;;;;;;;;;;21.10;48.50;;;;;;4967970;28;20300;-71
2022/06/14 13:28:15;;;;;;;;;;;21.10;46.30;;;;;;4989586;28;19914;-75
2022/06/14 13:30:41;;;;;;;;;;;21.00;46.20;;;;;;4989173;28;19914;-74
2022/06/14 13:33:12;;;;;;;;;;;20.90;45.30;;;;;;4989137;28;19922;-75
2022/06/14 13:35:47;;;;;;;;;;;21.00;47.00;;;;;;4986767;28;20474;-76
2022/06/14 13:38:36;;;;;;;;;;;21.00;48.20;;;;;;4988833;28;19976;-75
2022/06/14 13:41:12;;;;;;;;;;;21.10;48.50;;;;;;4983762;28;20056;-75
2022/06/14 13:43:46;;;;;;;;;;;21.20;48.10;;;;;;4987418;28;20005;-75
2022/06/14 13:46:17;;;;;;;;;;;21.20;48.70;;;;;;4987718;28;19937;-75
2022/06/14 13:49:01;;;;;;;;;;;21.20;46.60;;;;;;4987641;28;19913;-74
2022/06/14 13:51:31;;;;;;;;;;;21.20;47.90;;;;;;4988255;28;19917;-75
2022/06/14 13:54:15;;;;;;;;;;;21.10;47.10;;;;;;4986494;28;19914;-75
2022/06/14 13:56:47;;;;;;;;;;;21.10;49.10;;;;;;4986952;28;19917;-75
2022/06/14 13:59:14;;;;;;;;;;;21.20;46.00;;;;;;4988308;28;19917;-73
2022/06/14 14:01:51;;;;;;;;;;;21.10;48.70;;;;;;4986635;28;19920;-75
2022/06/14 14:04:35;;;;;;;;;;;21.20;48.00;;;;;;4986122;28;19921;-75
2022/06/14 14:07:05;;;;;;;;;;;21.20;48.90;;;;;;4987952;28;20090;-75
2022/06/14 14:09:38;;;;;;;;;;;21.20;48.40;;;;;;4987175;28;19964;-74
2022/06/14 14:12:06;;;;;;;;;;;21.10;48.10;;;;;;4986752;28;19914;-76
2022/06/14 14:14:34;;;;;;;;;;;21.20;46.40;;;;;;4987481;28;20012;-75
2022/06/14 14:17:06;;;;;;;;;;;21.10;48.60;;;;;;4987779;28;19929;-73
2022/06/14 14:19:54;;;;;;;;;;;21.10;46.90;;;;;;4987732;28;19922;-76
2022/06/14 14:22:20;;;;;;;;;;;21.00;48.30;;;;;;4969967;28;19914;-72
2022/06/14 14:24:56;;;;;;;;;;;21.10;48.90;;;;;;4985865;28;19961;-74
2022/06/14 14:27:21;;;;;;;;;;;21.20;49.00;;;;;;4970273;28;19929;-72
2022/06/14 14:29:52;;;;;;;;;;;21.10;46.10;;;;;;4987577;28;19914;-74
2022/06/14 14:32:20;;;;;;;;;;;21.20;49.20;;;;;;4986488;28;19937;-74
2022/06/14 14:34:48;;;;;;;;;;;21.10;48.40;;;;;;4986005;28;19933;-75
2022/06/14 14:37:19;;;;;;;;;;;21.20;46.40;;;;;;4986653;28;19922;-74
2022/06/14 14:39:48;;;;;;;;;;;21.00;46.00;;;;;;4987328;28;19914;-73
2022/06/14 14:42:16;;;;;;;;;;;21.00;47.30;;;;;;4988003;28;19921;-74
2022/06/14 14:44:45;;;;;;;;;;;20.90;46.70;;;;;;4985966;28;20532;-73
2022/06/14 14:47:13;;;;;;;;;;;21.10;49.00;;;;;;4986467;28;19967;-73
2022/06/14 14:49:41;;;;;;;;;;;21.20;49.10;;;;;;4986099;28;19914;-73
2022/06/14 14:52:22;;;;;;;;;;;21.30;49.10;;;;;;4985917;28;19918;-73
2022/06/14 14:55:00;;;;;;;;;;;21.30;49.40;;;;;;4987022;28;20304;-73
2022/06/14 14:57:30;;;;;;;;;;;21.40;49.60;;;;;;4969440;28;20396;-72